sensor_id;sensor_type;location;lat;lon;timestamp;temperature;humidity
5779;DHT22;2916;49.798;10.022;2022-12-10T00:02:14;1.00;99.90
5779;DHT22;2916;49.798;10.022;2022-12-10T00:04:41;1.00;99.90
5779;DHT22;2916;49.798;10.022;2022-12-10T00:07:08;0.90;99.90
5779;DHT22;2916;49.798;10.022;2022-12-10T00:09:35;0.90;99.90
5779;DHT22;2916;49.798;10.022;2022-12-10T00:12:04;0.90;99.90
5779;DHT22;2916;49.798;10.022;2022-12-10T00:14:31;0.90;99.90
5779;DHT22;2916;49.798;10.022;2022-12-10T00:16:58;0.90;99.90
5779;DHT22;2916;49.798;10.022;2022-12-10T00:19:25;0.90;99.90
5779;DHT22;2916;49.798;10.022;2022-12-10T00:21:52;0.90;99.90
5779;DHT22;2916;49.798;10.022;2022-12-10T00:24:18;0.90;99.90
5779;DHT22;2916;49.798;10.022;2022-12-10T00:26:45;0.90;99.90
5779;DHT22;2916;49.798;10.022;2022-12-10T00:29:14;1.00;99.90
5779;DHT22;2916;49.798;10.022;2022-12-10T00:31:41;1.00;99.90
5779;DHT22;2916;49.798;10.022;2022-12-10T00:34:09;1.00;99.90
5779;DHT22;2916;49.798;10.022;2022-12-10T00:36:39;0.90;99.90
5779;DHT22;2916;49.798;10.022;2022-12-10T00:39:08;0.90;99.90
5779;DHT22;2916;49.798;10.022;2022-12-10T00:41:35;0.90;99.90
5779;DHT22;2916;49.798;10.022;2022-12-10T00:44:02;0.90;99.90
5779;DHT22;2916;49.798;10.022;2022-12-10T00:46:30;0.90;99.90
5779;DHT22;2916;49.798;10.022;2022-12-10T00:48:58;0.90;99.90
5779;DHT22;2916;49.798;10.022;2022-12-10T00:51:27;0.80;99.90
5779;DHT22;2916;49.798;10.022;2022-12-10T00:53:56;0.80;99.90
5779;DHT22;2916;49.798;10.022;2022-12-10T00:56:25;0.80;99.90
5779;DHT22;2916;49.798;10.022;2022-12-10T00:58:52;0.90;99.90
5779;DHT22;2916;49.798;10.022;2022-12-10T01:01:21;0.90;99.90
5779;DHT22;2916;49.798;10.022;2022-12-10T01:03:51;0.90;99.90
5779;DHT22;2916;49.798;10.022;2022-12-10T01:06:21;0.80;99.90
5779;DHT22;2916;49.798;10.022;2022-12-10T01:08:50;0.90;99.90
5779;DHT22;2916;49.798;10.022;2022-12-10T01:11:20;0.80;99.90
5779;DHT22;2916;49.798;10.022;2022-12-10T01:13:48;0.80;99.90
5779;DHT22;2916;49.798;10.022;2022-12-10T01:16:18;0.70;99.90
5779;DHT22;2916;49.798;10.022;2022-12-10T01:18:45;0.70;99.90
5779;DHT22;2916;49.798;10.022;2022-12-10T01:21:16;0.70;99.90
5779;DHT22;2916;49.798;10.022;2022-12-10T01:23:44;0.70;99.90
5779;DHT22;2916;49.798;10.022;2022-12-10T01:26:13;0.60;99.90
5779;DHT22;2916;49.798;10.022;2022-12-10T01:28:41;0.60;99.90
5779;DHT22;2916;49.798;10.022;2022-12-10T01:31:09;0.60;99.90
5779;DHT22;2916;49.798;10.022;2022-12-10T01:33:37;0.50;99.90
5779;DHT22;2916;49.798;10.022;2022-12-10T01:36:06;0.60;99.90
5779;DHT22;2916;49.798;10.022;2022-12-10T01:38:35;0.60;99.90
5779;DHT22;2916;49.798;10.022;2022-12-10T01:41:03;0.50;99.90
5779;DHT22;2916;49.798;10.022;2022-12-10T01:43:53;0.50;99.90
5779;DHT22;2916;49.798;10.022;2022-12-10T01:46:20;0.50;99.90
5779;DHT22;2916;49.798;10.022;2022-12-10T01:48:49;0.50;99.90
5779;DHT22;2916;49.798;10.022;2022-12-10T01:51:16;0.50;99.90
5779;DHT22;2916;49.798;10.022;2022-12-10T01:53:45;0.50;99.90
5779;DHT22;2916;49.798;10.022;2022-12-10T01:56:15;0.40;99.90
5779;DHT22;2916;49.798;10.022;2022-12-10T01:58:43;0.40;99.90
5779;DHT22;2916;49.798;10.022;2022-12-10T02:01:13;0.40;99.90
5779;DHT22;2916;49.798;10.022;2022-12-10T02:03:51;0.50;99.90
5779;DHT22;2916;49.798;10.022;2022-12-10T02:06:44;0.40;99.90
5779;DHT22;2916;49.798;10.022;2022-12-10T02:09:21;0.50;99.90
5779;DHT22;2916;49.798;10.022;2022-12-10T02:11:54;0.50;99.90
5779;DHT22;2916;49.798;10.022;2022-12-10T02:14:28;0.40;99.90
5779;DHT22;2916;49.798;10.022;2022-12-10T02:16:58;0.30;99.90
5779;DHT22;2916;49.798;10.022;2022-12-10T02:19:39;0.30;99.90
5779;DHT22;2916;49.798;10.022;2022-12-10T02:22:10;0.30;99.90
5779;DHT22;2916;49.798;10.022;2022-12-10T02:24:39;0.20;99.90
5779;DHT22;2916;49.798;10.022;2022-12-10T02:27:11;0.20;99.90
5779;DHT22;2916;49.798;10.022;2022-12-10T02:29:42;0.10;99.90
5779;DHT22;2916;49.798;10.022;2022-12-10T02:32:13;0.10;99.90
5779;DHT22;2916;49.798;10.022;2022-12-10T02:34:43;0.10;99.90
5779;DHT22;2916;49.798;10.022;2022-12-10T02:37:14;0.10;99.90
5779;DHT22;2916;49.798;10.022;2022-12-10T02:39:44;0.00;99.90
5779;DHT22;2916;49.798;10.022;2022-12-10T02:42:15;-0.10;99.90
5779;DHT22;2916;49.798;10.022;2022-12-10T02:44:45;-0.10;99.90
5779;DHT22;2916;49.798;10.022;2022-12-10T02:47:15;-0.10;99.90
5779;DHT22;2916;49.798;10.022;2022-12-10T02:49:43;-0.10;99.90
5779;DHT22;2916;49.798;10.022;2022-12-10T02:52:13;-0.20;99.90
5779;DHT22;2916;49.798;10.022;2022-12-10T02:54:42;-0.20;99.90
5779;DHT22;2916;49.798;10.022;2022-12-10T02:57:25;-0.30;99.90
5779;DHT22;2916;49.798;10.022;2022-12-10T03:00:12;-0.20;99.90
5779;DHT22;2916;49.798;10.022;2022-12-10T03:05:51;-0.40;99.90
5779;DHT22;2916;49.798;10.022;2022-12-10T03:08:24;-0.50;99.90
5779;DHT22;2916;49.798;10.022;2022-12-10T03:10:55;-0.50;99.90
5779;DHT22;2916;49.798;10.022;2022-12-10T03:13:27;-0.50;99.90
5779;DHT22;2916;49.798;10.022;2022-12-10T03:15:59;-0.50;99.90
5779;DHT22;2916;49.798;10.022;2022-12-10T03:18:28;-0.60;99.90
5779;DHT22;2916;49.798;10.022;2022-12-10T03:20:58;-0.60;99.90
5779;DHT22;2916;49.798;10.022;2022-12-10T03:23:28;-0.60;99.90
5779;DHT22;2916;49.798;10.022;2022-12-10T03:25:56;-0.60;99.90
5779;DHT22;2916;49.798;10.022;2022-12-10T03:28:23;-0.70;99.90
5779;DHT22;2916;49.798;10.022;2022-12-10T03:30:53;-0.70;99.90
5779;DHT22;2916;49.798;10.022;2022-12-10T03:33:23;-0.70;99.90
5779;DHT22;2916;49.798;10.022;2022-12-10T03:35:50;-0.70;99.90
5779;DHT22;2916;49.798;10.022;2022-12-10T03:38:17;-0.80;99.90
5779;DHT22;2916;49.798;10.022;2022-12-10T03:40:44;-0.80;99.90
5779;DHT22;2916;49.798;10.022;2022-12-10T03:43:12;-0.80;99.90
5779;DHT22;2916;49.798;10.022;2022-12-10T03:45:39;-0.80;99.90
5779;DHT22;2916;49.798;10.022;2022-12-10T03:48:06;-0.80;99.90
5779;DHT22;2916;49.798;10.022;2022-12-10T03:50:35;-0.80;99.90
5779;DHT22;2916;49.798;10.022;2022-12-10T03:53:02;-0.80;99.90
5779;DHT22;2916;49.798;10.022;2022-12-10T03:55:28;-0.90;99.90
5779;DHT22;2916;49.798;10.022;2022-12-10T03:57:55;-1.00;99.90
5779;DHT22;2916;49.798;10.022;2022-12-10T04:00:22;-1.00;99.90
5779;DHT22;2916;49.798;10.022;2022-12-10T04:02:49;-1.10;99.90
5779;DHT22;2916;49.798;10.022;2022-12-10T04:05:16;-1.00;99.90
5779;DHT22;2916;49.798;10.022;2022-12-10T04:07:45;-0.90;99.90
5779;DHT22;2916;49.798;10.022;2022-12-10T04:10:11;-1.00;99.90
5779;DHT22;2916;49.798;10.022;2022-12-10T04:12:39;-0.90;99.90
5779;DHT22;2916;49.798;10.022;2022-12-10T04:15:07;-0.90;99.90
5779;DHT22;2916;49.798;10.022;2022-12-10T04:17:51;-0.90;99.90
5779;DHT22;2916;49.798;10.022;2022-12-10T04:20:19;-1.00;99.90
5779;DHT22;2916;49.798;10.022;2022-12-10T04:23:04;-0.90;99.90
5779;DHT22;2916;49.798;10.022;2022-12-10T04:25:49;-0.90;99.90
5779;DHT22;2916;49.798;10.022;2022-12-10T04:28:33;-0.90;99.90
5779;DHT22;2916;49.798;10.022;2022-12-10T04:31:00;-0.90;99.90
5779;DHT22;2916;49.798;10.022;2022-12-10T04:33:27;-0.90;99.90
5779;DHT22;2916;49.798;10.022;2022-12-10T04:35:53;-0.90;99.90
5779;DHT22;2916;49.798;10.022;2022-12-10T04:38:22;-0.90;99.90
5779;DHT22;2916;49.798;10.022;2022-12-10T04:40:49;-0.90;99.90
5779;DHT22;2916;49.798;10.022;2022-12-10T04:43:15;-0.90;99.90
5779;DHT22;2916;49.798;10.022;2022-12-10T04:45:42;-0.90;99.90
5779;DHT22;2916;49.798;10.022;2022-12-10T04:48:09;-0.80;99.90
5779;DHT22;2916;49.798;10.022;2022-12-10T04:50:36;-0.70;99.90
5779;DHT22;2916;49.798;10.022;2022-12-10T04:53:03;-0.90;99.90
5779;DHT22;2916;49.798;10.022;2022-12-10T04:55:31;-0.90;99.90
5779;DHT22;2916;49.798;10.022;2022-12-10T04:57:58;-1.00;99.90
5779;DHT22;2916;49.798;10.022;2022-12-10T05:00:25;-1.00;99.90
5779;DHT22;2916;49.798;10.022;2022-12-10T05:02:52;-0.80;99.90
5779;DHT22;2916;49.798;10.022;2022-12-10T05:05:19;-0.80;99.90
5779;DHT22;2916;49.798;10.022;2022-12-10T05:07:46;-0.80;99.90
5779;DHT22;2916;49.798;10.022;2022-12-10T05:10:12;-0.80;99.90
5779;DHT22;2916;49.798;10.022;2022-12-10T05:12:41;-0.80;99.90
5779;DHT22;2916;49.798;10.022;2022-12-10T05:15:08;-0.70;99.90
5779;DHT22;2916;49.798;10.022;2022-12-10T05:17:35;-0.60;99.90
5779;DHT22;2916;49.798;10.022;2022-12-10T05:20:03;-0.60;99.90
5779;DHT22;2916;49.798;10.022;2022-12-10T05:22:30;-0.60;99.90
5779;DHT22;2916;49.798;10.022;2022-12-10T05:25:15;-0.60;99.90
5779;DHT22;2916;49.798;10.022;2022-12-10T05:27:43;-0.60;99.90
5779;DHT22;2916;49.798;10.022;2022-12-10T05:30:11;-0.60;99.90
5779;DHT22;2916;49.798;10.022;2022-12-10T05:32:38;-0.50;99.90
5779;DHT22;2916;49.798;10.022;2022-12-10T05:35:05;-0.50;99.90
5779;DHT22;2916;49.798;10.022;2022-12-10T05:37:32;-0.50;99.90
5779;DHT22;2916;49.798;10.022;2022-12-10T05:40:00;-0.40;99.90
5779;DHT22;2916;49.798;10.022;2022-12-10T05:42:27;-0.40;99.90
5779;DHT22;2916;49.798;10.022;2022-12-10T05:44:56;-0.50;99.90
5779;DHT22;2916;49.798;10.022;2022-12-10T05:47:22;-0.40;99.90
5779;DHT22;2916;49.798;10.022;2022-12-10T05:49:49;-0.40;99.90
5779;DHT22;2916;49.798;10.022;2022-12-10T05:52:16;-0.40;99.90
5779;DHT22;2916;49.798;10.022;2022-12-10T05:54:43;-0.40;99.90
5779;DHT22;2916;49.798;10.022;2022-12-10T05:57:10;-0.40;99.90
5779;DHT22;2916;49.798;10.022;2022-12-10T05:59:37;-0.50;99.90
5779;DHT22;2916;49.798;10.022;2022-12-10T06:02:05;-0.50;99.90
5779;DHT22;2916;49.798;10.022;2022-12-10T06:04:32;-0.50;99.90
5779;DHT22;2916;49.798;10.022;2022-12-10T06:06:59;-0.50;99.90
5779;DHT22;2916;49.798;10.022;2022-12-10T06:09:26;-0.40;99.90
5779;DHT22;2916;49.798;10.022;2022-12-10T06:11:52;-0.50;99.90
5779;DHT22;2916;49.798;10.022;2022-12-10T06:14:19;-0.50;99.90
5779;DHT22;2916;49.798;10.022;2022-12-10T06:16:46;-0.50;99.90
5779;DHT22;2916;49.798;10.022;2022-12-10T06:19:14;-0.50;99.90
5779;DHT22;2916;49.798;10.022;2022-12-10T06:21:41;-0.50;99.90
5779;DHT22;2916;49.798;10.022;2022-12-10T06:24:09;-0.50;99.90
5779;DHT22;2916;49.798;10.022;2022-12-10T06:26:36;-0.50;99.90
5779;DHT22;2916;49.798;10.022;2022-12-10T06:29:03;-0.50;99.90
5779;DHT22;2916;49.798;10.022;2022-12-10T06:31:30;-0.50;99.90
5779;DHT22;2916;49.798;10.022;2022-12-10T06:33:57;-0.40;99.90
5779;DHT22;2916;49.798;10.022;2022-12-10T06:36:26;-0.30;99.90
5779;DHT22;2916;49.798;10.022;2022-12-10T06:38:53;-0.30;99.90
5779;DHT22;2916;49.798;10.022;2022-12-10T06:41:20;-0.40;99.90
5779;DHT22;2916;49.798;10.022;2022-12-10T06:43:47;-0.40;99.90
5779;DHT22;2916;49.798;10.022;2022-12-10T06:46:15;-0.40;99.90
5779;DHT22;2916;49.798;10.022;2022-12-10T06:48:43;-0.30;99.90
5779;DHT22;2916;49.798;10.022;2022-12-10T06:51:11;-0.40;99.90
5779;DHT22;2916;49.798;10.022;2022-12-10T06:53:40;-0.50;99.90
5779;DHT22;2916;49.798;10.022;2022-12-10T06:56:09;-0.40;99.90
5779;DHT22;2916;49.798;10.022;2022-12-10T06:58:37;-0.40;99.90
5779;DHT22;2916;49.798;10.022;2022-12-10T07:01:08;-0.40;99.90
5779;DHT22;2916;49.798;10.022;2022-12-10T07:03:35;-0.40;99.90
5779;DHT22;2916;49.798;10.022;2022-12-10T07:06:03;-0.30;99.90
5779;DHT22;2916;49.798;10.022;2022-12-10T07:08:30;-0.40;99.90
5779;DHT22;2916;49.798;10.022;2022-12-10T07:10:59;-0.30;99.90
5779;DHT22;2916;49.798;10.022;2022-12-10T07:13:26;-0.30;99.90
5779;DHT22;2916;49.798;10.022;2022-12-10T07:15:52;-0.30;99.90
5779;DHT22;2916;49.798;10.022;2022-12-10T07:18:19;-0.30;99.90
5779;DHT22;2916;49.798;10.022;2022-12-10T07:20:46;-0.30;99.90
5779;DHT22;2916;49.798;10.022;2022-12-10T07:23:14;-0.30;99.90
5779;DHT22;2916;49.798;10.022;2022-12-10T07:25:40;-0.30;99.90
5779;DHT22;2916;49.798;10.022;2022-12-10T07:28:09;-0.20;99.90
5779;DHT22;2916;49.798;10.022;2022-12-10T07:30:36;-0.20;99.90
5779;DHT22;2916;49.798;10.022;2022-12-10T07:33:03;-0.10;99.90
5779;DHT22;2916;49.798;10.022;2022-12-10T07:35:30;-0.10;99.90
5779;DHT22;2916;49.798;10.022;2022-12-10T07:37:57;-0.10;99.90
5779;DHT22;2916;49.798;10.022;2022-12-10T07:40:24;-0.10;99.90
5779;DHT22;2916;49.798;10.022;2022-12-10T07:42:51;0.00;99.90
5779;DHT22;2916;49.798;10.022;2022-12-10T07:45:19;-0.10;99.90
5779;DHT22;2916;49.798;10.022;2022-12-10T07:47:46;-0.10;99.90
5779;DHT22;2916;49.798;10.022;2022-12-10T07:50:13;0.00;99.90
5779;DHT22;2916;49.798;10.022;2022-12-10T07:52:40;0.00;99.90
5779;DHT22;2916;49.798;10.022;2022-12-10T07:55:08;0.00;99.90
5779;DHT22;2916;49.798;10.022;2022-12-10T07:57:35;0.10;99.90
5779;DHT22;2916;49.798;10.022;2022-12-10T08:00:02;0.10;99.90
5779;DHT22;2916;49.798;10.022;2022-12-10T08:02:30;0.20;99.90
5779;DHT22;2916;49.798;10.022;2022-12-10T08:04:57;0.20;99.90
5779;DHT22;2916;49.798;10.022;2022-12-10T08:07:24;0.20;99.90
5779;DHT22;2916;49.798;10.022;2022-12-10T08:09:51;0.20;99.90
5779;DHT22;2916;49.798;10.022;2022-12-10T08:12:18;0.30;99.90
5779;DHT22;2916;49.798;10.022;2022-12-10T08:14:45;0.30;99.90
5779;DHT22;2916;49.798;10.022;2022-12-10T08:17:12;0.30;99.90
5779;DHT22;2916;49.798;10.022;2022-12-10T08:19:40;0.30;99.90
5779;DHT22;2916;49.798;10.022;2022-12-10T08:22:07;0.40;99.90
5779;DHT22;2916;49.798;10.022;2022-12-10T08:24:34;0.50;99.90
5779;DHT22;2916;49.798;10.022;2022-12-10T08:27:01;0.50;99.90
5779;DHT22;2916;49.798;10.022;2022-12-10T08:29:28;0.50;99.90
5779;DHT22;2916;49.798;10.022;2022-12-10T08:31:55;0.50;99.90
5779;DHT22;2916;49.798;10.022;2022-12-10T08:34:22;0.50;99.90
5779;DHT22;2916;49.798;10.022;2022-12-10T08:36:50;0.50;99.90
5779;DHT22;2916;49.798;10.022;2022-12-10T08:39:17;0.60;99.90
5779;DHT22;2916;49.798;10.022;2022-12-10T08:41:44;0.60;99.90
5779;DHT22;2916;49.798;10.022;2022-12-10T08:44:12;0.60;99.90
5779;DHT22;2916;49.798;10.022;2022-12-10T08:46:39;0.60;99.90
5779;DHT22;2916;49.798;10.022;2022-12-10T08:49:06;0.70;99.90
5779;DHT22;2916;49.798;10.022;2022-12-10T08:51:34;0.70;99.90
5779;DHT22;2916;49.798;10.022;2022-12-10T08:54:03;0.70;99.90
5779;DHT22;2916;49.798;10.022;2022-12-10T08:56:30;0.80;99.90
5779;DHT22;2916;49.798;10.022;2022-12-10T08:58:57;0.80;99.90
5779;DHT22;2916;49.798;10.022;2022-12-10T09:01:24;0.80;99.90
5779;DHT22;2916;49.798;10.022;2022-12-10T09:03:51;0.90;99.90
5779;DHT22;2916;49.798;10.022;2022-12-10T09:06:21;1.00;99.90
5779;DHT22;2916;49.798;10.022;2022-12-10T09:08:49;0.90;99.90
5779;DHT22;2916;49.798;10.022;2022-12-10T09:11:20;0.90;99.90
5779;DHT22;2916;49.798;10.022;2022-12-10T09:13:48;0.90;99.90
5779;DHT22;2916;49.798;10.022;2022-12-10T09:16:15;0.90;99.90
5779;DHT22;2916;49.798;10.022;2022-12-10T09:18:42;1.00;99.90
5779;DHT22;2916;49.798;10.022;2022-12-10T09:21:12;1.00;99.90
5779;DHT22;2916;49.798;10.022;2022-12-10T09:23:39;1.00;99.90
5779;DHT22;2916;49.798;10.022;2022-12-10T09:26:07;1.10;99.90
5779;DHT22;2916;49.798;10.022;2022-12-10T09:28:36;1.20;99.90
5779;DHT22;2916;49.798;10.022;2022-12-10T09:31:05;1.30;99.90
5779;DHT22;2916;49.798;10.022;2022-12-10T09:33:33;1.40;99.90
5779;DHT22;2916;49.798;10.022;2022-12-10T09:36:02;1.40;99.90
5779;DHT22;2916;49.798;10.022;2022-12-10T09:38:29;1.40;99.90
5779;DHT22;2916;49.798;10.022;2022-12-10T09:41:00;1.50;99.90
5779;DHT22;2916;49.798;10.022;2022-12-10T09:43:45;1.60;99.90
5779;DHT22;2916;49.798;10.022;2022-12-10T09:46:19;1.60;99.90
5779;DHT22;2916;49.798;10.022;2022-12-10T09:48:58;1.60;99.90
5779;DHT22;2916;49.798;10.022;2022-12-10T09:51:29;1.60;99.90
5779;DHT22;2916;49.798;10.022;2022-12-10T09:53:59;1.60;99.90
5779;DHT22;2916;49.798;10.022;2022-12-10T09:56:29;1.70;99.90
5779;DHT22;2916;49.798;10.022;2022-12-10T09:59:00;1.70;99.90
5779;DHT22;2916;49.798;10.022;2022-12-10T10:01:29;1.70;99.90
5779;DHT22;2916;49.798;10.022;2022-12-10T10:03:57;1.70;99.90
5779;DHT22;2916;49.798;10.022;2022-12-10T10:06:26;1.80;99.90
5779;DHT22;2916;49.798;10.022;2022-12-10T10:08:56;1.80;99.90
5779;DHT22;2916;49.798;10.022;2022-12-10T10:11:28;1.80;99.90
5779;DHT22;2916;49.798;10.022;2022-12-10T10:14:00;1.80;99.90
5779;DHT22;2916;49.798;10.022;2022-12-10T10:16:33;1.80;99.90
5779;DHT22;2916;49.798;10.022;2022-12-10T10:19:02;1.90;99.90
5779;DHT22;2916;49.798;10.022;2022-12-10T10:21:33;1.80;99.90
5779;DHT22;2916;49.798;10.022;2022-12-10T10:24:00;1.90;99.90
5779;DHT22;2916;49.798;10.022;2022-12-10T10:26:28;2.00;99.90
5779;DHT22;2916;49.798;10.022;2022-12-10T10:28:58;2.00;99.90
5779;DHT22;2916;49.798;10.022;2022-12-10T10:31:30;2.10;99.90
5779;DHT22;2916;49.798;10.022;2022-12-10T10:33:58;2.20;99.90
5779;DHT22;2916;49.798;10.022;2022-12-10T10:36:27;2.30;99.90
5779;DHT22;2916;49.798;10.022;2022-12-10T10:38:55;2.30;99.90
5779;DHT22;2916;49.798;10.022;2022-12-10T10:41:24;2.40;99.90
5779;DHT22;2916;49.798;10.022;2022-12-10T10:43:59;2.50;99.90
5779;DHT22;2916;49.798;10.022;2022-12-10T10:46:28;2.40;99.90
5779;DHT22;2916;49.798;10.022;2022-12-10T10:49:14;2.40;99.90
5779;DHT22;2916;49.798;10.022;2022-12-10T10:51:45;2.40;99.90
5779;DHT22;2916;49.798;10.022;2022-12-10T10:54:12;2.40;99.90
5779;DHT22;2916;49.798;10.022;2022-12-10T10:56:56;2.30;99.90
5779;DHT22;2916;49.798;10.022;2022-12-10T10:59:32;2.30;99.90
5779;DHT22;2916;49.798;10.022;2022-12-10T11:02:04;2.20;99.90
5779;DHT22;2916;49.798;10.022;2022-12-10T11:04:46;2.10;99.90
5779;DHT22;2916;49.798;10.022;2022-12-10T11:07:20;2.10;99.90
5779;DHT22;2916;49.798;10.022;2022-12-10T11:09:49;2.20;99.90
5779;DHT22;2916;49.798;10.022;2022-12-10T11:12:29;2.20;99.90
5779;DHT22;2916;49.798;10.022;2022-12-10T11:14:57;2.30;99.90
5779;DHT22;2916;49.798;10.022;2022-12-10T11:17:27;2.30;99.90
5779;DHT22;2916;49.798;10.022;2022-12-10T11:19:57;2.40;99.90
5779;DHT22;2916;49.798;10.022;2022-12-10T11:22:26;2.40;99.90
5779;DHT22;2916;49.798;10.022;2022-12-10T11:24:54;2.40;99.90
5779;DHT22;2916;49.798;10.022;2022-12-10T11:27:33;2.40;99.90
5779;DHT22;2916;49.798;10.022;2022-12-10T11:30:04;2.50;99.90
5779;DHT22;2916;49.798;10.022;2022-12-10T11:32:47;2.60;99.90
5779;DHT22;2916;49.798;10.022;2022-12-10T11:35:20;2.60;99.90
5779;DHT22;2916;49.798;10.022;2022-12-10T11:37:57;2.60;99.90
5779;DHT22;2916;49.798;10.022;2022-12-10T11:40:37;2.70;99.90
5779;DHT22;2916;49.798;10.022;2022-12-10T11:43:18;2.80;99.90
5779;DHT22;2916;49.798;10.022;2022-12-10T11:45:55;2.80;99.90
5779;DHT22;2916;49.798;10.022;2022-12-10T11:48:34;2.90;99.90
5779;DHT22;2916;49.798;10.022;2022-12-10T11:51:14;2.80;99.90
5779;DHT22;2916;49.798;10.022;2022-12-10T11:54:06;2.80;99.90
5779;DHT22;2916;49.798;10.022;2022-12-10T11:56:40;2.90;99.90
5779;DHT22;2916;49.798;10.022;2022-12-10T11:59:16;3.00;99.90
5779;DHT22;2916;49.798;10.022;2022-12-10T12:02:03;3.00;99.90
5779;DHT22;2916;49.798;10.022;2022-12-10T12:04:51;3.00;99.90
5779;DHT22;2916;49.798;10.022;2022-12-10T12:07:39;3.10;99.90
5779;DHT22;2916;49.798;10.022;2022-12-10T12:10:28;3.10;99.90
5779;DHT22;2916;49.798;10.022;2022-12-10T12:13:01;3.20;99.90
5779;DHT22;2916;49.798;10.022;2022-12-10T12:15:33;3.30;99.90
5779;DHT22;2916;49.798;10.022;2022-12-10T12:18:04;3.10;99.90
5779;DHT22;2916;49.798;10.022;2022-12-10T12:20:37;3.20;99.90
5779;DHT22;2916;49.798;10.022;2022-12-10T12:23:13;3.30;99.90
5779;DHT22;2916;49.798;10.022;2022-12-10T12:25:45;3.30;99.90
5779;DHT22;2916;49.798;10.022;2022-12-10T12:28:17;3.30;99.90
5779;DHT22;2916;49.798;10.022;2022-12-10T12:30:47;3.40;99.90
5779;DHT22;2916;49.798;10.022;2022-12-10T12:33:20;3.40;99.90
5779;DHT22;2916;49.798;10.022;2022-12-10T12:35:57;3.30;99.90
5779;DHT22;2916;49.798;10.022;2022-12-10T12:38:28;3.30;99.90
5779;DHT22;2916;49.798;10.022;2022-12-10T12:41:01;3.20;99.90
5779;DHT22;2916;49.798;10.022;2022-12-10T12:43:39;3.20;99.90
5779;DHT22;2916;49.798;10.022;2022-12-10T12:46:12;3.20;99.90
5779;DHT22;2916;49.798;10.022;2022-12-10T12:48:46;3.10;99.90
5779;DHT22;2916;49.798;10.022;2022-12-10T12:51:21;3.10;99.90
5779;DHT22;2916;49.798;10.022;2022-12-10T12:53:49;3.10;99.90
5779;DHT22;2916;49.798;10.022;2022-12-10T12:56:23;3.10;99.90
5779;DHT22;2916;49.798;10.022;2022-12-10T12:59:03;3.00;99.90
5779;DHT22;2916;49.798;10.022;2022-12-10T13:01:36;3.00;99.90
5779;DHT22;2916;49.798;10.022;2022-12-10T13:04:05;3.00;99.90
5779;DHT22;2916;49.798;10.022;2022-12-10T13:06:35;2.90;99.90
5779;DHT22;2916;49.798;10.022;2022-12-10T13:09:18;2.90;99.90
5779;DHT22;2916;49.798;10.022;2022-12-10T13:12:18;2.90;99.90
5779;DHT22;2916;49.798;10.022;2022-12-10T13:15:11;2.90;99.90
5779;DHT22;2916;49.798;10.022;2022-12-10T13:18:01;3.00;99.90
5779;DHT22;2916;49.798;10.022;2022-12-10T13:20:30;2.80;99.90
5779;DHT22;2916;49.798;10.022;2022-12-10T13:23:00;2.80;99.90
5779;DHT22;2916;49.798;10.022;2022-12-10T13:25:54;2.80;99.90
5779;DHT22;2916;49.798;10.022;2022-12-10T13:28:28;2.80;99.90
5779;DHT22;2916;49.798;10.022;2022-12-10T13:37:18;2.70;99.90
5779;DHT22;2916;49.798;10.022;2022-12-10T13:40:12;2.80;99.90
5779;DHT22;2916;49.798;10.022;2022-12-10T13:42:44;2.70;99.90
5779;DHT22;2916;49.798;10.022;2022-12-10T13:45:32;2.60;99.90
5779;DHT22;2916;49.798;10.022;2022-12-10T13:48:30;2.80;99.90
5779;DHT22;2916;49.798;10.022;2022-12-10T13:51:15;2.70;99.90
5779;DHT22;2916;49.798;10.022;2022-12-10T13:53:53;2.80;99.90
5779;DHT22;2916;49.798;10.022;2022-12-10T13:56:28;2.80;99.90
5779;DHT22;2916;49.798;10.022;2022-12-10T13:59:06;2.80;99.90
5779;DHT22;2916;49.798;10.022;2022-12-10T14:01:47;2.80;99.90
5779;DHT22;2916;49.798;10.022;2022-12-10T14:04:45;2.80;99.90
5779;DHT22;2916;49.798;10.022;2022-12-10T14:07:16;2.80;99.90
5779;DHT22;2916;49.798;10.022;2022-12-10T14:09:48;2.80;99.90
5779;DHT22;2916;49.798;10.022;2022-12-10T14:12:18;2.80;99.90
5779;DHT22;2916;49.798;10.022;2022-12-10T14:14:50;2.80;99.90
5779;DHT22;2916;49.798;10.022;2022-12-10T14:17:23;2.80;99.90
5779;DHT22;2916;49.798;10.022;2022-12-10T14:19:53;2.80;99.90
5779;DHT22;2916;49.798;10.022;2022-12-10T14:22:29;2.80;99.90
5779;DHT22;2916;49.798;10.022;2022-12-10T14:24:59;2.80;99.90
5779;DHT22;2916;49.798;10.022;2022-12-10T14:27:28;2.80;99.90
5779;DHT22;2916;49.798;10.022;2022-12-10T14:30:00;2.80;99.90
5779;DHT22;2916;49.798;10.022;2022-12-10T14:32:32;2.80;99.90
5779;DHT22;2916;49.798;10.022;2022-12-10T14:35:00;2.70;99.90
5779;DHT22;2916;49.798;10.022;2022-12-10T14:37:30;2.70;99.90
5779;DHT22;2916;49.798;10.022;2022-12-10T14:39:57;2.70;99.90
5779;DHT22;2916;49.798;10.022;2022-12-10T14:42:24;2.70;99.90
5779;DHT22;2916;49.798;10.022;2022-12-10T14:44:57;2.70;99.90
5779;DHT22;2916;49.798;10.022;2022-12-10T14:47:25;2.70;99.90
5779;DHT22;2916;49.798;10.022;2022-12-10T14:49:53;2.60;99.90
5779;DHT22;2916;49.798;10.022;2022-12-10T14:52:22;2.60;99.90
5779;DHT22;2916;49.798;10.022;2022-12-10T14:54:50;2.40;99.90
5779;DHT22;2916;49.798;10.022;2022-12-10T14:57:21;2.30;99.90
5779;DHT22;2916;49.798;10.022;2022-12-10T14:59:59;2.20;99.90
5779;DHT22;2916;49.798;10.022;2022-12-10T15:02:29;2.10;99.90
5779;DHT22;2916;49.798;10.022;2022-12-10T15:04:57;2.10;99.90
5779;DHT22;2916;49.798;10.022;2022-12-10T15:07:27;2.00;99.90
5779;DHT22;2916;49.798;10.022;2022-12-10T15:09:58;2.00;99.90
5779;DHT22;2916;49.798;10.022;2022-12-10T15:12:37;1.90;99.90
5779;DHT22;2916;49.798;10.022;2022-12-10T15:15:13;1.90;99.90
5779;DHT22;2916;49.798;10.022;2022-12-10T15:17:51;1.90;99.90
5779;DHT22;2916;49.798;10.022;2022-12-10T15:20:22;1.90;99.90
5779;DHT22;2916;49.798;10.022;2022-12-10T15:22:50;1.80;99.90
5779;DHT22;2916;49.798;10.022;2022-12-10T15:25:22;1.80;99.90
5779;DHT22;2916;49.798;10.022;2022-12-10T15:27:57;1.80;99.90
5779;DHT22;2916;49.798;10.022;2022-12-10T15:30:33;1.80;99.90
5779;DHT22;2916;49.798;10.022;2022-12-10T15:33:02;1.80;99.90
5779;DHT22;2916;49.798;10.022;2022-12-10T15:35:29;1.80;99.90
5779;DHT22;2916;49.798;10.022;2022-12-10T15:38:01;1.70;99.90
5779;DHT22;2916;49.798;10.022;2022-12-10T15:40:29;1.80;99.90
5779;DHT22;2916;49.798;10.022;2022-12-10T15:43:09;1.80;99.90
5779;DHT22;2916;49.798;10.022;2022-12-10T15:45:39;1.70;99.90
5779;DHT22;2916;49.798;10.022;2022-12-10T15:48:10;1.70;99.90
5779;DHT22;2916;49.798;10.022;2022-12-10T15:50:39;1.70;99.90
5779;DHT22;2916;49.798;10.022;2022-12-10T15:53:10;1.80;99.90
5779;DHT22;2916;49.798;10.022;2022-12-10T15:55:37;1.70;99.90
5779;DHT22;2916;49.798;10.022;2022-12-10T15:58:08;1.80;99.90
5779;DHT22;2916;49.798;10.022;2022-12-10T16:00:35;1.80;99.90
5779;DHT22;2916;49.798;10.022;2022-12-10T16:03:04;1.70;99.90
5779;DHT22;2916;49.798;10.022;2022-12-10T16:05:34;1.70;99.90
5779;DHT22;2916;49.798;10.022;2022-12-10T16:08:09;1.60;99.90
5779;DHT22;2916;49.798;10.022;2022-12-10T16:10:38;1.60;99.90
5779;DHT22;2916;49.798;10.022;2022-12-10T16:13:06;1.60;99.90
5779;DHT22;2916;49.798;10.022;2022-12-10T16:15:42;1.60;99.90
5779;DHT22;2916;49.798;10.022;2022-12-10T16:18:10;1.70;99.90
5779;DHT22;2916;49.798;10.022;2022-12-10T16:20:39;1.70;99.90
5779;DHT22;2916;49.798;10.022;2022-12-10T16:23:05;1.70;99.90
5779;DHT22;2916;49.798;10.022;2022-12-10T16:25:33;1.70;99.90
5779;DHT22;2916;49.798;10.022;2022-12-10T16:28:01;1.70;99.90
5779;DHT22;2916;49.798;10.022;2022-12-10T16:30:33;1.70;99.90